Time;durP1;ratioP1;P1;durP2;ratioP2;P2;SDS_P1;SDS_P2;PMS_P1;PMS_P2;Temp;Humidity;BMP_temperature;BMP_pressure;BME280_temperature;BME280_humidity;BME280_pressure;Samples;Min_cycle;Max_cycle;Signal;HPM_P1;HPM_P2
2022/06/29 00:01:32;;;;;;;62.40;5.33;;;;;;;;;;5055525;28;20857;-86
2022/06/29 00:04:01;;;;;;;61.83;5.40;;;;;;;;;;5055892;28;20846;-85
2022/06/29 00:06:28;;;;;;;61.17;5.47;;;;;;;;;;5055729;28;20459;-85
2022/06/29 00:08:55;;;;;;;62.20;6.13;;;;;;;;;;5055313;28;20554;-86
2022/06/29 00:11:22;;;;;;;63.40;6.73;;;;;;;;;;5055251;28;20460;-85
2022/06/29 00:13:50;;;;;;;60.77;5.20;;;;;;;;;;5055389;28;20435;-85
2022/06/29 00:16:17;;;;;;;62.83;6.13;;;;;;;;;;5055310;28;20440;-85
2022/06/29 00:18:44;;;;;;;62.20;5.90;;;;;;;;;;5054925;28;20448;-85
2022/06/29 00:21:13;;;;;;;62.47;5.33;;;;;;;;;;5055117;28;20460;-85
2022/06/29 00:23:41;;;;;;;66.37;5.90;;;;;;;;;;5054940;28;20439;-86
2022/06/29 00:26:08;;;;;;;61.40;5.70;;;;;;;;;;5055324;28;20449;-86
2022/06/29 00:28:36;;;;;;;61.43;5.60;;;;;;;;;;5034839;28;20526;-86
2022/06/29 00:31:03;;;;;;;67.80;5.07;;;;;;;;;;5035211;28;20468;-85
2022/06/29 00:33:31;;;;;;;61.67;5.90;;;;;;;;;;5034899;28;20464;-85
2022/06/29 00:35:58;;;;;;;62.33;5.00;;;;;;;;;;5034869;28;20441;-84
2022/06/29 00:38:26;;;;;;;61.47;5.53;;;;;;;;;;5034533;28;20457;-85
2022/06/29 00:40:54;;;;;;;61.00;5.40;;;;;;;;;;5034704;28;20986;-84
2022/06/29 00:43:21;;;;;;;61.87;5.83;;;;;;;;;;5034774;28;20937;-84
2022/06/29 00:45:49;;;;;;;64.57;5.20;;;;;;;;;;5034916;28;20449;-85
2022/06/29 00:48:16;;;;;;;62.10;5.70;;;;;;;;;;5034267;28;20546;-85
2022/06/29 00:50:44;;;;;;;61.00;5.30;;;;;;;;;;5034577;28;20889;-84
2022/06/29 00:53:14;;;;;;;61.47;5.67;;;;;;;;;;5034621;28;20986;-85
2022/06/29 00:55:43;;;;;;;60.83;5.47;;;;;;;;;;5034683;28;20429;-84
2022/06/29 00:58:11;;;;;;;62.33;5.00;;;;;;;;;;5034074;28;20441;-85
2022/06/29 01:00:38;;;;;;;63.07;5.73;;;;;;;;;;5034271;28;20464;-84
2022/06/29 01:03:07;;;;;;;62.70;5.30;;;;;;;;;;5034444;28;20468;-85
2022/06/29 01:05:34;;;;;;;61.57;5.30;;;;;;;;;;5034252;28;20970;-84
2022/06/29 01:08:02;;;;;;;62.67;5.93;;;;;;;;;;5033314;28;20473;-86
2022/06/29 01:10:29;;;;;;;62.20;5.80;;;;;;;;;;5034132;28;20862;-84
2022/06/29 01:12:58;;;;;;;61.20;5.83;;;;;;;;;;5034025;28;20434;-84
2022/06/29 01:15:25;;;;;;;62.00;4.90;;;;;;;;;;5034174;28;20986;-85
2022/06/29 01:17:52;;;;;;;61.63;4.90;;;;;;;;;;5033813;28;20434;-85
2022/06/29 01:20:19;;;;;;;61.07;5.73;;;;;;;;;;5034087;28;20438;-85
2022/06/29 01:22:48;;;;;;;60.57;5.07;;;;;;;;;;5033881;28;20558;-85
2022/06/29 01:25:15;;;;;;;60.53;5.20;;;;;;;;;;5034043;28;20453;-85
2022/06/29 01:27:42;;;;;;;60.40;5.10;;;;;;;;;;5033800;28;20532;-85
2022/06/29 01:30:10;;;;;;;64.07;6.30;;;;;;;;;;5033871;28;20446;-85
2022/06/29 01:32:38;;;;;;;61.10;5.67;;;;;;;;;;5033582;28;20461;-85
2022/06/29 01:35:06;;;;;;;61.13;5.63;;;;;;;;;;5034060;28;20445;-84
2022/06/29 01:37:34;;;;;;;60.87;5.20;;;;;;;;;;5033419;28;20472;-85
2022/06/29 01:40:03;;;;;;;62.10;5.50;;;;;;;;;;5033616;28;20452;-85
2022/06/29 01:42:30;;;;;;;61.03;4.87;;;;;;;;;;5033853;28;20543;-85
2022/06/29 01:44:58;;;;;;;60.27;4.83;;;;;;;;;;5046642;28;20441;-85
2022/06/29 01:47:25;;;;;;;62.00;5.53;;;;;;;;;;5037397;28;20437;-85
2022/06/29 01:49:52;;;;;;;60.10;4.80;;;;;;;;;;5037417;28;20482;-85
2022/06/29 01:52:20;;;;;;;61.37;5.50;;;;;;;;;;5038186;28;20516;-85
2022/06/29 01:54:47;;;;;;;59.97;4.67;;;;;;;;;;5053708;28;20436;-84
2022/06/29 01:57:16;;;;;;;60.90;5.03;;;;;;;;;;5052892;28;20479;-85
2022/06/29 01:59:43;;;;;;;61.37;5.30;;;;;;;;;;5053271;28;20437;-85
2022/06/29 02:02:10;;;;;;;63.60;5.47;;;;;;;;;;5053052;28;20974;-84
2022/06/29 02:04:38;;;;;;;60.93;5.20;;;;;;;;;;5053100;28;20474;-85
2022/06/29 02:07:05;;;;;;;62.10;5.07;;;;;;;;;;5052823;28;20444;-85
2022/06/29 02:09:32;;;;;;;61.40;5.60;;;;;;;;;;5052880;28;20885;-85
2022/06/29 02:11:59;;;;;;;61.70;5.77;;;;;;;;;;5052738;28;20463;-84
2022/06/29 02:14:28;;;;;;;61.93;5.60;;;;;;;;;;5052912;28;20494;-85
2022/06/29 02:16:55;;;;;;;61.27;5.43;;;;;;;;;;5052764;28;20437;-84
2022/06/29 02:19:23;;;;;;;61.70;6.03;;;;;;;;;;5052144;28;20429;-85
2022/06/29 02:21:50;;;;;;;61.70;5.87;;;;;;;;;;5061601;28;20475;-84
2022/06/29 02:24:17;;;;;;;60.60;5.20;;;;;;;;;;5054183;28;20436;-85
2022/06/29 02:26:44;;;;;;;60.50;4.93;;;;;;;;;;5052641;28;20440;-84
2022/06/29 02:29:12;;;;;;;60.53;5.17;;;;;;;;;;5052581;28;20518;-85
2022/06/29 02:34:46;;;;;;;60.47;4.93;;;;;;;;;;5026760;28;20428;-85
2022/06/29 02:37:14;;;;;;;60.80;5.23;;;;;;;;;;5052334;28;20478;-85
2022/06/29 02:39:42;;;;;;;61.27;5.27;;;;;;;;;;5052629;28;20911;-85
2022/06/29 02:42:10;;;;;;;62.73;5.87;;;;;;;;;;5052525;28;20463;-85
2022/06/29 02:44:38;;;;;;;62.47;6.07;;;;;;;;;;5052432;28;20438;-85
2022/06/29 02:47:07;;;;;;;63.10;6.13;;;;;;;;;;5052343;28;20486;-85
2022/06/29 02:49:34;;;;;;;61.20;4.90;;;;;;;;;;5052402;28;20546;-85
2022/06/29 02:52:02;;;;;;;61.37;4.97;;;;;;;;;;5052043;28;20538;-85
2022/06/29 02:54:29;;;;;;;60.47;5.07;;;;;;;;;;5052543;28;20487;-84
2022/06/29 02:56:57;;;;;;;60.63;4.80;;;;;;;;;;5052360;28;20460;-85
2022/06/29 02:59:24;;;;;;;60.70;5.03;;;;;;;;;;5052006;28;20500;-84
2022/06/29 03:01:51;;;;;;;60.83;4.97;;;;;;;;;;5051990;28;20577;-85
2022/06/29 03:04:20;;;;;;;61.00;4.70;;;;;;;;;;5052089;28;20475;-85
2022/06/29 03:06:47;;;;;;;60.33;5.10;;;;;;;;;;5052237;28;20574;-85
2022/06/29 03:09:15;;;;;;;60.50;5.40;;;;;;;;;;5051849;28;20486;-85
2022/06/29 03:11:42;;;;;;;61.20;5.07;;;;;;;;;;5051947;28;20460;-84
2022/06/29 03:14:09;;;;;;;60.17;4.70;;;;;;;;;;5052124;28;20456;-85
2022/06/29 03:16:37;;;;;;;60.97;4.90;;;;;;;;;;5052062;28;20436;-84
2022/06/29 03:19:04;;;;;;;60.10;5.00;;;;;;;;;;5051635;28;20490;-85
2022/06/29 03:21:33;;;;;;;61.27;4.93;;;;;;;;;;5051644;28;20881;-84
2022/06/29 03:24:01;;;;;;;61.37;5.10;;;;;;;;;;5051896;28;20440;-85
2022/06/29 03:26:28;;;;;;;59.67;4.50;;;;;;;;;;5051893;28;20482;-84
2022/06/29 03:28:55;;;;;;;61.30;5.50;;;;;;;;;;5051974;28;20894;-85
2022/06/29 03:31:22;;;;;;;61.07;5.00;;;;;;;;;;5053031;28;20967;-85
2022/06/29 03:33:50;;;;;;;62.70;5.10;;;;;;;;;;5055774;28;20501;-85
2022/06/29 03:36:17;;;;;;;61.20;5.50;;;;;;;;;;5055877;28;20468;-85
2022/06/29 03:38:46;;;;;;;60.37;4.57;;;;;;;;;;5055673;28;20447;-84
2022/06/29 03:41:13;;;;;;;61.97;5.80;;;;;;;;;;5055904;28;20483;-84
2022/06/29 03:43:40;;;;;;;60.50;4.63;;;;;;;;;;5055780;28;20562;-85
2022/06/29 03:46:08;;;;;;;61.67;5.77;;;;;;;;;;5055625;28;20490;-84
2022/06/29 03:48:35;;;;;;;61.60;5.07;;;;;;;;;;5055485;28;20848;-85
2022/06/29 03:51:02;;;;;;;60.50;5.03;;;;;;;;;;5055436;28;20978;-85
2022/06/29 03:53:29;;;;;;;62.30;5.50;;;;;;;;;;5055625;28;21024;-85
2022/06/29 03:55:58;;;;;;;61.80;5.90;;;;;;;;;;5055824;28;20957;-85
2022/06/29 03:58:26;;;;;;;60.80;5.33;;;;;;;;;;5055187;28;20506;-84
2022/06/29 04:00:53;;;;;;;60.80;4.90;;;;;;;;;;5055491;28;20800;-85
2022/06/29 04:03:20;;;;;;;60.60;5.13;;;;;;;;;;5055400;28;21140;-85
2022/06/29 04:05:47;;;;;;;60.67;5.13;;;;;;;;;;5055372;28;20875;-85
2022/06/29 04:08:15;;;;;;;60.67;5.13;;;;;;;;;;5055097;28;21020;-85
2022/06/29 04:10:42;;;;;;;61.47;5.20;;;;;;;;;;5055101;28;20892;-85
2022/06/29 04:13:11;;;;;;;62.17;5.90;;;;;;;;;;5055216;28;20448;-85
2022/06/29 04:15:38;;;;;;;60.67;5.20;;;;;;;;;;5055309;28;21008;-85
2022/06/29 04:18:05;;;;;;;61.27;5.37;;;;;;;;;;5055154;28;20830;-85
2022/06/29 04:23:18;;;;;;;61.20;5.50;;;;;;;;;;5055083;28;20462;-85
2022/06/29 04:25:45;;;;;;;63.03;6.10;;;;;;;;;;5055271;28;20934;-85
2022/06/29 04:28:14;;;;;;;60.73;5.43;;;;;;;;;;5054589;28;20436;-85
2022/06/29 04:30:41;;;;;;;60.60;5.40;;;;;;;;;;5054695;28;20990;-85
2022/06/29 04:33:09;;;;;;;66.20;5.80;;;;;;;;;;5054810;28;20501;-85
2022/06/29 04:35:36;;;;;;;60.83;5.70;;;;;;;;;;5054949;28;20490;-84
2022/06/29 04:38:03;;;;;;;61.60;5.90;;;;;;;;;;5054277;28;20505;-85
2022/06/29 04:40:31;;;;;;;61.63;5.47;;;;;;;;;;5054617;28;20506;-85
2022/06/29 04:42:59;;;;;;;61.70;6.07;;;;;;;;;;5052507;28;20450;-85
2022/06/29 04:48:13;;;;;;;63.60;5.93;;;;;;;;;;5054504;28;20550;-85
2022/06/29 04:50:40;;;;;;;61.47;5.50;;;;;;;;;;5054151;28;20541;-85
2022/06/29 04:53:07;;;;;;;61.07;5.43;;;;;;;;;;5054346;28;20448;-85
2022/06/29 04:55:35;;;;;;;61.67;5.43;;;;;;;;;;5054178;28;20493;-85
2022/06/29 04:58:02;;;;;;;63.10;5.90;;;;;;;;;;5054039;28;20452;-85
2022/06/29 05:00:31;;;;;;;63.13;5.77;;;;;;;;;;5054231;28;20494;-87
2022/06/29 05:02:58;;;;;;;62.47;6.23;;;;;;;;;;5054288;28;20501;-84
2022/06/29 05:05:25;;;;;;;62.27;6.00;;;;;;;;;;5054098;28;20435;-85
2022/06/29 05:07:53;;;;;;;62.70;6.97;;;;;;;;;;5053707;28;20463;-85
2022/06/29 05:10:20;;;;;;;61.50;6.27;;;;;;;;;;5054047;28;20541;-85
2022/06/29 05:12:47;;;;;;;61.80;5.93;;;;;;;;;;5054612;28;20519;-85
2022/06/29 05:15:14;;;;;;;63.20;6.03;;;;;;;;;;5054173;28;21028;-86
2022/06/29 05:17:45;;;;;;;61.30;5.57;;;;;;;;;;5053663;28;20982;-85
2022/06/29 05:20:13;;;;;;;61.27;5.87;;;;;;;;;;5054329;28;20803;-84
2022/06/29 05:22:40;;;;;;;62.37;6.17;;;;;;;;;;5053951;28;20437;-85
2022/06/29 05:25:07;;;;;;;62.17;6.07;;;;;;;;;;5053910;28;20433;-85
2022/06/29 05:27:35;;;;;;;61.23;6.30;;;;;;;;;;5053667;28;20432;-85
2022/06/29 05:30:02;;;;;;;61.77;6.23;;;;;;;;;;5053806;28;20478;-85
2022/06/29 05:32:29;;;;;;;62.00;6.13;;;;;;;;;;5053514;28;20473;-85
2022/06/29 05:34:58;;;;;;;62.37;6.13;;;;;;;;;;5053831;28;20472;-85
2022/06/29 05:37:26;;;;;;;61.67;6.43;;;;;;;;;;5053298;28;20964;-85
2022/06/29 05:39:53;;;;;;;61.07;6.20;;;;;;;;;;5053866;28;20445;-85
2022/06/29 05:42:20;;;;;;;60.87;5.50;;;;;;;;;;5053311;28;20460;-84
2022/06/29 05:44:47;;;;;;;65.50;6.03;;;;;;;;;;5053483;28;20522;-85
2022/06/29 05:47:15;;;;;;;62.27;6.30;;;;;;;;;;5053218;28;20440;-85
2022/06/29 05:49:42;;;;;;;60.73;5.30;;;;;;;;;;5053412;28;20488;-85
2022/06/29 05:52:11;;;;;;;61.07;6.10;;;;;;;;;;5053199;28;20464;-85
2022/06/29 05:54:38;;;;;;;65.33;6.97;;;;;;;;;;5052981;28;20444;-85
2022/06/29 05:57:06;;;;;;;62.50;6.40;;;;;;;;;;5053210;28;20440;-85
2022/06/29 05:59:33;;;;;;;62.97;6.00;;;;;;;;;;5053148;28;20443;-85
2022/06/29 06:02:01;;;;;;;61.10;5.30;;;;;;;;;;5053292;28;20457;-85
2022/06/29 06:04:28;;;;;;;62.60;6.00;;;;;;;;;;5053100;28;20444;-85
2022/06/29 06:06:55;;;;;;;61.40;5.50;;;;;;;;;;5053240;28;20450;-85
2022/06/29 06:09:26;;;;;;;61.97;6.77;;;;;;;;;;5052690;28;20429;-85
2022/06/29 06:11:54;;;;;;;62.07;6.07;;;;;;;;;;5053103;28;20465;-85
2022/06/29 06:14:21;;;;;;;62.77;6.80;;;;;;;;;;5052876;28;20523;-85
2022/06/29 06:16:49;;;;;;;60.57;5.50;;;;;;;;;;5053051;28;20442;-85
2022/06/29 06:19:16;;;;;;;60.47;5.37;;;;;;;;;;5052698;28;20438;-85
2022/06/29 06:21:43;;;;;;;62.40;6.30;;;;;;;;;;5052660;28;20466;-85
2022/06/29 06:24:11;;;;;;;61.50;6.10;;;;;;;;;;5040537;28;20505;-85
2022/06/29 06:26:39;;;;;;;61.30;5.50;;;;;;;;;;5033225;28;20454;-85
2022/06/29 06:29:07;;;;;;;65.87;5.50;;;;;;;;;;5032971;28;20452;-85
2022/06/29 06:31:34;;;;;;;62.03;5.90;;;;;;;;;;5032840;28;20490;-85
2022/06/29 06:34:02;;;;;;;62.13;5.50;;;;;;;;;;5047756;28;20462;-86
2022/06/29 06:36:29;;;;;;;61.97;5.97;;;;;;;;;;5038638;28;20441;-86
2022/06/29 06:38:56;;;;;;;61.47;6.13;;;;;;;;;;5037680;28;20458;-86
2022/06/29 06:41:23;;;;;;;62.17;6.20;;;;;;;;;;5036517;28;20548;-86
2022/06/29 06:43:51;;;;;;;61.87;6.30;;;;;;;;;;5033777;28;20457;-85
2022/06/29 06:46:19;;;;;;;61.77;6.00;;;;;;;;;;5032779;28;20447;-85
2022/06/29 06:48:46;;;;;;;60.67;5.57;;;;;;;;;;5032320;28;20439;-86
2022/06/29 06:51:14;;;;;;;63.60;6.70;;;;;;;;;;5032472;28;20488;-86
2022/06/29 06:53:41;;;;;;;60.70;5.47;;;;;;;;;;5032932;28;20454;-85
2022/06/29 06:56:08;;;;;;;61.57;5.67;;;;;;;;;;5032510;28;20950;-86
2022/06/29 06:58:36;;;;;;;60.50;5.77;;;;;;;;;;5032476;28;20864;-85
2022/06/29 07:01:06;;;;;;;62.17;5.63;;;;;;;;;;5032592;28;20530;-85
2022/06/29 07:03:35;;;;;;;61.57;6.27;;;;;;;;;;5032683;28;20823;-85
2022/06/29 07:06:04;;;;;;;66.10;5.60;;;;;;;;;;5046542;28;20535;-84
2022/06/29 07:08:32;;;;;;;62.07;6.00;;;;;;;;;;5056227;28;20472;-85
2022/06/29 07:10:59;;;;;;;61.00;6.37;;;;;;;;;;5057928;28;20528;-85
2022/06/29 07:13:27;;;;;;;61.30;5.70;;;;;;;;;;5052376;28;20497;-84
2022/06/29 07:15:54;;;;;;;62.00;5.80;;;;;;;;;;5053375;28;20507;-84
2022/06/29 07:18:23;;;;;;;61.23;5.60;;;;;;;;;;5051825;28;20440;-85
2022/06/29 07:20:50;;;;;;;62.90;6.80;;;;;;;;;;5053881;28;20505;-84
2022/06/29 07:23:18;;;;;;;62.80;5.77;;;;;;;;;;5052658;28;20488;-83
2022/06/29 07:25:45;;;;;;;62.17;6.27;;;;;;;;;;5051761;28;20437;-84
2022/06/29 07:28:12;;;;;;;62.40;6.63;;;;;;;;;;5051595;28;20453;-85
2022/06/29 07:30:40;;;;;;;60.40;5.20;;;;;;;;;;5052055;28;20483;-85
2022/06/29 07:33:09;;;;;;;60.70;5.50;;;;;;;;;;5051800;28;20438;-85
2022/06/29 07:35:37;;;;;;;60.87;5.13;;;;;;;;;;5051921;28;20470;-85
2022/06/29 07:38:05;;;;;;;61.73;6.00;;;;;;;;;;5051793;28;20511;-85
2022/06/29 07:40:33;;;;;;;73.33;5.73;;;;;;;;;;5050287;28;20959;-84
2022/06/29 07:43:00;;;;;;;61.07;5.57;;;;;;;;;;5051805;28;20455;-86
2022/06/29 07:45:27;;;;;;;62.00;6.13;;;;;;;;;;5052135;28;20483;-87
2022/06/29 07:47:54;;;;;;;61.63;5.77;;;;;;;;;;5051705;28;20471;-85
2022/06/29 07:50:22;;;;;;;60.67;5.50;;;;;;;;;;5052805;28;20896;-86
2022/06/29 07:52:50;;;;;;;60.87;5.90;;;;;;;;;;5051759;28;21001;-85
2022/06/29 07:55:18;;;;;;;61.50;6.03;;;;;;;;;;5052272;28;20498;-85
2022/06/29 07:57:45;;;;;;;62.33;5.60;;;;;;;;;;5052061;28;20448;-88
2022/06/29 08:00:13;;;;;;;63.10;6.00;;;;;;;;;;5052454;28;20443;-89
2022/06/29 08:02:41;;;;;;;60.57;4.87;;;;;;;;;;5052227;28;20527;-88
2022/06/29 08:05:08;;;;;;;60.63;4.80;;;;;;;;;;5052399;28;20453;-88
2022/06/29 08:07:36;;;;;;;61.20;4.90;;;;;;;;;;5048150;28;20832;-89
2022/06/29 08:10:05;;;;;;;60.80;5.17;;;;;;;;;;5040693;28;20441;-87
2022/06/29 08:12:34;;;;;;;63.87;6.40;;;;;;;;;;5038974;28;20763;-87
2022/06/29 08:15:02;;;;;;;61.60;5.60;;;;;;;;;;5039136;28;20469;-89
2022/06/29 08:17:29;;;;;;;60.77;4.73;;;;;;;;;;5031832;28;20442;-89
2022/06/29 08:19:56;;;;;;;60.00;4.73;;;;;;;;;;5035772;28;20881;-89
2022/06/29 08:22:23;;;;;;;60.80;4.77;;;;;;;;;;5038480;28;20479;-88
2022/06/29 08:24:51;;;;;;;60.27;5.00;;;;;;;;;;5055085;28;20506;-88
2022/06/29 08:27:22;;;;;;;60.80;5.30;;;;;;;;;;5054332;28;20452;-86
2022/06/29 08:29:50;;;;;;;60.50;4.57;;;;;;;;;;5055279;28;20555;-86
2022/06/29 08:32:17;;;;;;;60.97;5.23;;;;;;;;;;5055020;28;20488;-87
2022/06/29 08:34:45;;;;;;;63.10;4.90;;;;;;;;;;5055025;28;20759;-87
2022/06/29 08:37:12;;;;;;;59.67;4.20;;;;;;;;;;5054731;28;20814;-86
2022/06/29 08:39:39;;;;;;;59.97;4.97;;;;;;;;;;5054662;28;20433;-85
2022/06/29 08:42:07;;;;;;;60.10;4.53;;;;;;;;;;5054459;28;20471;-85
2022/06/29 08:44:37;;;;;;;59.97;4.87;;;;;;;;;;5054125;28;20536;-85
2022/06/29 08:47:05;;;;;;;62.87;5.47;;;;;;;;;;5054849;28;20555;-86
2022/06/29 08:49:32;;;;;;;60.47;4.70;;;;;;;;;;5054401;28;20517;-86
2022/06/29 08:52:00;;;;;;;59.57;4.03;;;;;;;;;;5054288;28;21044;-86
2022/06/29 08:54:27;;;;;;;60.60;4.70;;;;;;;;;;5054744;28;20444;-86
2022/06/29 08:56:56;;;;;;;60.20;4.90;;;;;;;;;;5054437;28;20459;-86
2022/06/29 08:59:23;;;;;;;59.40;4.40;;;;;;;;;;5054123;28;20436;-86
2022/06/29 09:01:52;;;;;;;58.97;4.60;;;;;;;;;;5054614;28;20560;-86
2022/06/29 09:04:20;;;;;;;61.10;5.87;;;;;;;;;;5054272;28;20437;-86
2022/06/29 09:06:47;;;;;;;60.33;4.03;;;;;;;;;;5054144;28;20432;-86
2022/06/29 09:09:15;;;;;;;60.10;4.77;;;;;;;;;;5054039;28;20503;-86
2022/06/29 09:11:44;;;;;;;59.50;3.90;;;;;;;;;;5054108;28;20518;-85
2022/06/29 09:14:12;;;;;;;60.30;4.37;;;;;;;;;;5054491;28;20468;-86
2022/06/29 09:16:57;;;;;;;61.30;5.00;;;;;;;;;;5053035;28;20440;-87
2022/06/29 09:19:26;;;;;;;64.10;4.40;;;;;;;;;;5054139;28;20420;-86
2022/06/29 09:21:55;;;;;;;59.27;3.40;;;;;;;;;;5054588;28;20457;-85
2022/06/29 09:24:24;;;;;;;60.97;4.27;;;;;;;;;;5053855;28;20500;-85
2022/06/29 09:26:51;;;;;;;60.07;3.93;;;;;;;;;;5053895;28;20453;-86
2022/06/29 09:29:23;;;;;;;59.30;3.53;;;;;;;;;;5053426;28;21077;-86
2022/06/29 09:32:10;;;;;;;60.03;3.47;;;;;;;;;;5053736;28;20477;-86
2022/06/29 09:34:38;;;;;;;58.90;3.30;;;;;;;;;;5051017;28;20450;-87
2022/06/29 09:37:07;;;;;;;58.20;2.80;;;;;;;;;;5044522;28;20535;-87
2022/06/29 09:39:34;;;;;;;59.37;3.93;;;;;;;;;;5045000;28;20435;-87
2022/06/29 09:42:02;;;;;;;59.30;3.30;;;;;;;;;;5053612;28;20468;-86
2022/06/29 09:44:30;;;;;;;58.90;3.30;;;;;;;;;;5053637;28;20440;-86
2022/06/29 09:46:57;;;;;;;59.10;3.20;;;;;;;;;;5053478;28;20444;-87
2022/06/29 09:49:27;;;;;;;61.50;3.13;;;;;;;;;;5052900;28;20444;-86
2022/06/29 09:51:56;;;;;;;59.10;3.30;;;;;;;;;;5053462;28;20491;-86
2022/06/29 09:54:25;;;;;;;59.07;3.33;;;;;;;;;;5053414;28;20490;-87
2022/06/29 09:56:53;;;;;;;59.80;4.17;;;;;;;;;;5053520;28;20533;-87
2022/06/29 10:02:34;;;;;;;59.87;3.40;;;;;;;;;;5052992;28;20513;-87
2022/06/29 10:05:04;;;;;;;58.70;3.33;;;;;;;;;;5052960;28;21075;-86
2022/06/29 10:07:31;;;;;;;58.80;3.53;;;;;;;;;;5052837;28;20927;-86
2022/06/29 10:10:00;;;;;;;58.40;3.20;;;;;;;;;;5052844;28;20460;-86
2022/06/29 10:15:24;;;;;;;62.50;3.90;;;;;;;;;;5053120;28;20424;-89
2022/06/29 10:17:54;;;;;;;58.67;3.20;;;;;;;;;;5052719;28;20462;-87
2022/06/29 10:20:32;;;;;;;59.27;3.70;;;;;;;;;;5051621;28;20490;-87
2022/06/29 10:22:59;;;;;;;59.00;3.60;;;;;;;;;;5052998;28;20880;-87
2022/06/29 10:25:28;;;;;;;59.37;3.10;;;;;;;;;;5052705;28;20452;-88
2022/06/29 10:28:13;;;;;;;61.20;3.43;;;;;;;;;;5052620;28;20472;-86
2022/06/29 10:30:40;;;;;;;59.30;3.30;;;;;;;;;;5052559;28;20487;-88
2022/06/29 10:33:26;;;;;;;59.40;3.77;;;;;;;;;;5052844;28;20440;-88
2022/06/29 10:36:00;;;;;;;60.27;3.57;;;;;;;;;;5052753;28;20453;-87
2022/06/29 10:38:28;;;;;;;61.13;4.60;;;;;;;;;;5052345;28;20521;-88
2022/06/29 10:41:08;;;;;;;58.23;3.27;;;;;;;;;;5051898;28;20463;-87
2022/06/29 10:43:37;;;;;;;58.03;3.03;;;;;;;;;;5052608;28;20941;-85
2022/06/29 10:46:05;;;;;;;58.40;3.40;;;;;;;;;;5052561;28;20490;-89
2022/06/29 10:48:32;;;;;;;57.97;3.07;;;;;;;;;;5052334;28;20441;-86
2022/06/29 10:51:01;;;;;;;57.90;2.97;;;;;;;;;;5052031;28;20484;-86
2022/06/29 10:53:28;;;;;;;58.27;3.50;;;;;;;;;;5052096;28;20432;-85
2022/06/29 10:55:56;;;;;;;59.20;3.10;;;;;;;;;;5052298;28;20445;-86
2022/06/29 10:58:24;;;;;;;58.00;3.10;;;;;;;;;;5052507;28;20440;-85
2022/06/29 11:00:53;;;;;;;57.40;3.07;;;;;;;;;;5052090;28;20478;-85
2022/06/29 11:03:22;;;;;;;61.00;3.60;;;;;;;;;;5052411;28;20504;-86
2022/06/29 11:15:39;;;;;;;57.47;3.30;;;;;;;;;;5071624;28;20428;-86
2022/06/29 11:16:55;;;;;;;57.70;2.90;;;;;;;;;;5072319;28;20456;-85
2022/06/29 11:19:27;;;;;;;57.87;3.00;;;;;;;;;;5068812;28;20439;-86
2022/06/29 11:22:07;;;;;;;58.17;3.13;;;;;;;;;;5053814;28;20537;-86
2022/06/29 11:24:50;;;;;;;58.90;2.97;;;;;;;;;;5050501;28;20444;-86
2022/06/29 11:27:30;;;;;;;58.80;3.10;;;;;;;;;;5052063;28;20803;-87
2022/06/29 11:29:57;;;;;;;58.77;3.37;;;;;;;;;;5052470;28;20443;-86
2022/06/29 11:32:26;;;;;;;59.17;3.07;;;;;;;;;;5052017;28;20496;-86
2022/06/29 11:34:59;;;;;;;60.73;3.50;;;;;;;;;;5052342;28;20528;-86
2022/06/29 11:37:26;;;;;;;66.50;3.50;;;;;;;;;;5051822;28;20962;-86
2022/06/29 11:39:55;;;;;;;60.10;3.60;;;;;;;;;;5051927;28;20432;-87
2022/06/29 11:45:09;;;;;;;60.07;4.03;;;;;;;;;;5052129;28;20780;-88
2022/06/29 11:47:36;;;;;;;59.43;4.20;;;;;;;;;;5051562;28;20458;-88
2022/06/29 11:50:15;;;;;;;60.07;3.97;;;;;;;;;;5053083;28;20490;-88
2022/06/29 11:52:42;;;;;;;65.30;4.40;;;;;;;;;;5055039;28;20479;-88
2022/06/29 11:55:11;;;;;;;59.17;3.80;;;;;;;;;;5054896;28;20460;-89
2022/06/29 11:57:38;;;;;;;59.33;3.10;;;;;;;;;;5056337;28;20448;-87
2022/06/29 12:00:06;;;;;;;59.77;3.60;;;;;;;;;;5064839;28;20455;-86
2022/06/29 12:02:34;;;;;;;58.57;3.30;;;;;;;;;;5057784;28;20464;-88
2022/06/29 12:05:02;;;;;;;59.27;3.93;;;;;;;;;;5056928;28;20446;-88
2022/06/29 12:07:31;;;;;;;58.90;3.20;;;;;;;;;;5057412;28;20490;-88
2022/06/29 12:09:59;;;;;;;60.87;3.93;;;;;;;;;;5056532;28;20857;-89
2022/06/29 12:12:28;;;;;;;58.90;3.47;;;;;;;;;;5056274;28;20486;-88
2022/06/29 12:14:55;;;;;;;59.80;3.87;;;;;;;;;;5056818;28;20874;-84
2022/06/29 12:17:23;;;;;;;59.40;4.00;;;;;;;;;;5055939;28;20947;-86
2022/06/29 12:19:50;;;;;;;60.00;3.80;;;;;;;;;;5055745;28;20432;-87
2022/06/29 12:22:19;;;;;;;58.87;3.70;;;;;;;;;;5055462;28;20464;-90
2022/06/29 12:24:47;;;;;;;60.07;4.23;;;;;;;;;;5055669;28;20452;-86
2022/06/29 12:27:14;;;;;;;59.80;3.80;;;;;;;;;;5053917;28;20502;-88
2022/06/29 12:29:43;;;;;;;60.30;3.83;;;;;;;;;;5055824;28;20448;-88
2022/06/29 12:32:10;;;;;;;59.80;4.30;;;;;;;;;;5055312;28;20484;-89
2022/06/29 12:34:37;;;;;;;59.10;3.70;;;;;;;;;;5040526;28;20445;-89
2022/06/29 12:37:05;;;;;;;61.27;3.60;;;;;;;;;;5035459;28;20491;-89
2022/06/29 12:39:32;;;;;;;58.33;3.57;;;;;;;;;;5035298;28;20425;-88
2022/06/29 12:42:00;;;;;;;58.87;3.77;;;;;;;;;;5035142;28;20530;-85
2022/06/29 12:44:27;;;;;;;60.13;4.50;;;;;;;;;;5034790;28;20453;-87
2022/06/29 12:46:57;;;;;;;58.77;3.70;;;;;;;;;;5034976;28;20441;-87
2022/06/29 12:49:24;;;;;;;59.37;3.60;;;;;;;;;;5034640;28;20421;-87
2022/06/29 12:51:51;;;;;;;59.53;3.57;;;;;;;;;;5034878;28;20922;-88
2022/06/29 12:54:19;;;;;;;58.30;3.63;;;;;;;;;;5034600;28;20445;-88
2022/06/29 12:56:46;;;;;;;57.80;2.90;;;;;;;;;;5034787;28;20441;-88
2022/06/29 12:59:14;;;;;;;57.60;3.00;;;;;;;;;;5034473;28;20492;-87
2022/06/29 13:01:41;;;;;;;60.30;3.53;;;;;;;;;;5034753;28;20481;-88
2022/06/29 13:04:10;;;;;;;57.67;2.93;;;;;;;;;;5033786;28;20973;-87
2022/06/29 13:06:37;;;;;;;59.40;3.50;;;;;;;;;;5034976;28;20457;-87
2022/06/29 13:09:05;;;;;;;59.23;3.40;;;;;;;;;;5034704;28;20528;-87
2022/06/29 13:11:32;;;;;;;58.20;3.80;;;;;;;;;;5046264;28;20464;-85
2022/06/29 13:13:59;;;;;;;60.20;3.10;;;;;;;;;;5054149;28;20523;-86
2022/06/29 13:16:26;;;;;;;58.13;3.17;;;;;;;;;;5054241;28;20448;-85
2022/06/29 13:18:54;;;;;;;58.73;3.27;;;;;;;;;;5054068;28;20433;-89
2022/06/29 13:21:23;;;;;;;57.50;3.00;;;;;;;;;;5053849;28;21169;-87
2022/06/29 13:23:50;;;;;;;57.90;2.97;;;;;;;;;;5053636;28;20879;-88
2022/06/29 13:26:18;;;;;;;60.27;3.53;;;;;;;;;;5053998;28;20956;-86
2022/06/29 13:28:45;;;;;;;57.63;3.10;;;;;;;;;;5053594;28;20445;-87
2022/06/29 13:31:12;;;;;;;60.27;3.30;;;;;;;;;;5053804;28;20467;-87
2022/06/29 13:33:40;;;;;;;58.67;3.10;;;;;;;;;;5053645;28;20495;-88
2022/06/29 13:36:07;;;;;;;57.47;2.90;;;;;;;;;;5053914;28;20433;-87
2022/06/29 13:38:36;;;;;;;58.03;3.40;;;;;;;;;;5053671;28;20475;-88
2022/06/29 13:41:03;;;;;;;58.87;3.50;;;;;;;;;;5053160;28;20834;-88
2022/06/29 13:43:30;;;;;;;57.90;3.60;;;;;;;;;;5051701;28;20448;-87
2022/06/29 13:45:58;;;;;;;58.00;3.30;;;;;;;;;;5053516;28;20464;-88
2022/06/29 13:48:25;;;;;;;58.90;3.43;;;;;;;;;;5053231;28;20522;-88
2022/06/29 13:50:52;;;;;;;58.17;3.20;;;;;;;;;;5053270;28;20459;-89
2022/06/29 13:53:20;;;;;;;58.80;3.23;;;;;;;;;;5053337;28;20484;-88
2022/06/29 13:55:48;;;;;;;57.90;2.93;;;;;;;;;;5053454;28;20445;-87
2022/06/29 13:58:16;;;;;;;58.30;3.13;;;;;;;;;;5052957;28;20440;-87
2022/06/29 14:00:43;;;;;;;58.20;3.40;;;;;;;;;;5053010;28;20456;-87
2022/06/29 14:03:10;;;;;;;58.20;3.37;;;;;;;;;;5053294;28;20509;-88
2022/06/29 14:05:38;;;;;;;63.53;3.70;;;;;;;;;;5053441;28;20460;-87
2022/06/29 14:08:05;;;;;;;57.57;2.80;;;;;;;;;;5052745;28;20939;-88
2022/06/29 14:10:33;;;;;;;58.97;3.80;;;;;;;;;;5052691;28;21117;-88
2022/06/29 14:13:01;;;;;;;57.47;2.90;;;;;;;;;;5051582;28;20445;-88
2022/06/29 14:15:29;;;;;;;59.60;3.63;;;;;;;;;;5052849;28;20486;-88
2022/06/29 14:17:56;;;;;;;57.40;2.83;;;;;;;;;;5052727;28;20432;-88
2022/06/29 14:20:23;;;;;;;58.37;3.90;;;;;;;;;;5053637;28;20479;-86
2022/06/29 14:22:51;;;;;;;60.77;4.13;;;;;;;;;;5052715;28;20480;-88
2022/06/29 14:25:19;;;;;;;58.17;3.13;;;;;;;;;;5052910;28;20811;-88
2022/06/29 14:27:46;;;;;;;62.50;3.17;;;;;;;;;;5052635;28;20494;-87
2022/06/29 14:30:15;;;;;;;58.07;3.17;;;;;;;;;;5052674;28;20437;-90
2022/06/29 14:32:43;;;;;;;57.63;3.10;;;;;;;;;;5052619;28;20863;-84
2022/06/29 14:35:11;;;;;;;59.40;3.10;;;;;;;;;;5052776;28;20444;-87
2022/06/29 14:37:38;;;;;;;58.07;3.23;;;;;;;;;;5052257;28;20872;-87
2022/06/29 14:40:06;;;;;;;58.27;3.07;;;;;;;;;;5052373;28;20436;-87
2022/06/29 14:42:36;;;;;;;57.97;3.73;;;;;;;;;;5052407;28;20519;-89
2022/06/29 14:45:03;;;;;;;63.20;4.20;;;;;;;;;;5051107;28;20457;-91
2022/06/29 14:47:32;;;;;;;57.50;3.27;;;;;;;;;;5052289;28;20487;-88
2022/06/29 14:49:59;;;;;;;58.07;3.63;;;;;;;;;;5052493;28;20444;-87
2022/06/29 14:52:27;;;;;;;58.20;3.20;;;;;;;;;;5052063;28;20483;-86
2022/06/29 14:54:55;;;;;;;58.70;3.50;;;;;;;;;;5052190;28;20441;-86
2022/06/29 14:57:22;;;;;;;58.10;3.17;;;;;;;;;;5052212;28;20471;-87
2022/06/29 14:59:50;;;;;;;59.07;3.10;;;;;;;;;;5052399;28;20456;-86
2022/06/29 15:02:18;;;;;;;59.30;3.43;;;;;;;;;;5051955;28;20482;-87